createdAt,value
2022-11-01T00:02:00.637Z,100407.00
2022-11-01T00:04:27.334Z,100407.47
2022-11-01T00:06:53.957Z,100400.31
2022-11-01T00:09:21.231Z,100396.13
2022-11-01T00:11:48.194Z,100390.44
2022-11-01T00:14:16.717Z,100400.47
2022-11-01T00:16:43.738Z,100388.06
2022-11-01T00:19:10.434Z,100381.22
2022-11-01T00:21:37.707Z,100389.03
2022-11-01T00:24:05.036Z,100384.06
2022-11-01T00:26:32.015Z,100392.22
2022-11-01T00:28:58.611Z,100373.19
2022-11-01T00:31:26.138Z,100377.34
2022-11-01T00:33:53.034Z,100364.97
2022-11-01T00:36:20.038Z,100369.72
2022-11-01T00:38:51.408Z,100369.81
2022-11-01T00:41:19.420Z,100359.47
2022-11-01T00:43:46.416Z,100364.00
2022-11-01T00:46:12.961Z,100353.81
2022-11-01T00:48:39.572Z,100358.81
2022-11-01T00:51:06.120Z,100358.47
2022-11-01T00:53:32.936Z,100354.38
2022-11-01T00:56:04.595Z,100344.34
2022-11-01T00:58:31.480Z,100350.56
2022-11-01T01:00:58.752Z,100348.66
2022-11-01T01:03:26.163Z,100340.72
2022-11-01T01:05:54.194Z,100329.75
2022-11-01T01:08:22.210Z,100319.66
2022-11-01T01:10:48.923Z,100325.88
2022-11-01T01:13:16.322Z,100311.50
2022-11-01T01:15:42.905Z,100314.16
2022-11-01T01:18:09.814Z,100308.72
2022-11-01T01:20:36.690Z,100299.97
2022-11-01T01:23:04.134Z,100287.94
2022-11-01T01:25:30.706Z,100286.06
2022-11-01T01:27:57.659Z,100282.75
2022-11-01T01:30:24.244Z,100275.47
2022-11-01T01:32:51.361Z,100275.59
2022-11-01T01:35:17.932Z,100272.06
2022-11-01T01:37:44.488Z,100284.09
2022-11-01T01:40:11.318Z,100287.56
2022-11-01T01:42:40.914Z,100281.84
2022-11-01T01:45:19.319Z,100283.28
2022-11-01T01:47:49.772Z,100290.81
2022-11-01T01:50:39.520Z,100279.66
2022-11-01T01:53:15.818Z,100281.59
2022-11-01T01:56:14.205Z,100281.50
2022-11-01T01:58:50.028Z,100275.03
2022-11-01T02:01:16.912Z,100265.53
2022-11-01T02:03:44.408Z,100259.03
2022-11-01T02:06:14.371Z,100264.53
2022-11-01T02:08:57.199Z,100259.78
2022-11-01T02:11:23.949Z,100251.09
2022-11-01T02:13:51.049Z,100243.34
2022-11-01T02:16:35.515Z,100224.78
2022-11-01T02:19:04.851Z,100222.06
2022-11-01T02:21:51.289Z,100218.16
2022-11-01T02:24:39.222Z,100212.81
2022-11-01T02:27:14.869Z,100208.06
2022-11-01T02:30:00.696Z,100204.88
2022-11-01T02:32:49.456Z,100211.31
2022-11-01T02:35:20.444Z,100213.59
2022-11-01T02:38:01.391Z,100206.16
2022-11-01T02:40:46.729Z,100204.34
2022-11-01T02:43:20.760Z,100197.59
2022-11-01T02:45:50.925Z,100196.84
2022-11-01T02:48:23.009Z,100197.97
2022-11-01T02:50:55.090Z,100195.06
2022-11-01T02:53:22.663Z,100191.84
2022-11-01T02:55:53.339Z,100193.09
2022-11-01T02:58:25.652Z,100196.19
2022-11-01T03:00:52.469Z,100184.56
2022-11-01T03:03:39.570Z,100181.00
2022-11-01T03:06:26.632Z,100179.53
2022-11-01T03:09:00.645Z,100182.03
2022-11-01T03:11:41.261Z,100187.59
2022-11-01T03:14:13.660Z,100188.94
2022-11-01T03:16:54.125Z,100178.47
2022-11-01T03:19:43.509Z,100193.03
2022-11-01T03:22:15.844Z,100192.34
2022-11-01T03:24:45.182Z,100173.72
2022-11-01T03:27:26.281Z,100172.72
2022-11-01T03:30:00.816Z,100164.16
2022-11-01T03:32:34.625Z,100167.06
2022-11-01T03:35:03.914Z,100170.59
2022-11-01T03:37:32.883Z,100166.38
2022-11-01T03:40:04.386Z,100174.56
2022-11-01T03:42:32.385Z,100181.34
2022-11-01T03:45:05.797Z,100177.66
2022-11-01T03:47:32.461Z,100172.19
2022-11-01T03:50:12.416Z,100160.69
2022-11-01T03:52:39.057Z,100167.91
2022-11-01T03:55:18.083Z,100168.13
2022-11-01T03:57:52.229Z,100167.84
2022-11-01T04:00:21.702Z,100163.00
2022-11-01T04:02:49.485Z,100156.13
2022-11-01T04:05:16.696Z,100153.56
2022-11-01T04:07:44.302Z,100159.06
2022-11-01T04:10:11.890Z,100159.25
2022-11-01T04:12:38.667Z,100158.19
2022-11-01T04:15:24.948Z,100167.41
2022-11-01T04:18:25.039Z,100167.69
2022-11-01T04:20:53.300Z,100161.56
2022-11-01T04:23:20.017Z,100158.50
2022-11-01T04:25:47.126Z,100163.28
2022-11-01T04:28:15.050Z,100167.69
2022-11-01T04:30:42.321Z,100179.81
2022-11-01T04:33:09.369Z,100176.69
2022-11-01T04:35:38.064Z,100182.03
2022-11-01T04:38:06.195Z,100182.56
2022-11-01T04:40:34.325Z,100171.63
2022-11-01T04:43:00.925Z,100168.22
2022-11-01T04:45:27.968Z,100159.56
2022-11-01T04:48:15.860Z,100165.06
2022-11-01T04:50:43.438Z,100167.69
2022-11-01T04:53:10.351Z,100165.81
2022-11-01T04:55:36.991Z,100167.41
2022-11-01T04:58:04.455Z,100156.50
2022-11-01T05:00:33.166Z,100166.06
2022-11-01T05:03:02.538Z,100154.19
2022-11-01T05:05:30.085Z,100156.38
2022-11-01T05:08:07.514Z,100154.75
2022-11-01T05:10:35.825Z,100166.38
2022-11-01T05:13:03.570Z,100159.25
2022-11-01T05:15:30.674Z,100162.00
2022-11-01T05:17:58.005Z,100153.50
2022-11-01T05:20:25.019Z,100163.16
2022-11-01T05:22:51.931Z,100161.63
2022-11-01T05:25:18.477Z,100155.91
2022-11-01T05:27:45.068Z,100166.13
2022-11-01T05:30:12.495Z,100174.22
2022-11-01T05:32:39.044Z,100172.47
2022-11-01T05:35:06.734Z,100170.97
2022-11-01T05:37:35.713Z,100162.63
2022-11-01T05:40:03.198Z,100160.97
2022-11-01T05:42:29.769Z,100163.50
2022-11-01T05:44:56.329Z,100173.72
2022-11-01T05:47:22.874Z,100165.19
2022-11-01T05:49:49.402Z,100165.63
2022-11-01T05:52:16.320Z,100166.34
2022-11-01T05:54:42.876Z,100171.00
2022-11-01T05:57:09.424Z,100188.09
2022-11-01T05:59:35.961Z,100193.19
2022-11-01T06:02:02.712Z,100188.63
2022-11-01T06:04:29.338Z,100193.06
2022-11-01T06:06:55.867Z,100193.97
2022-11-01T06:09:22.716Z,100193.28
2022-11-01T06:11:49.647Z,100203.53
2022-11-01T06:14:16.370Z,100195.59
2022-11-01T06:16:44.335Z,100208.53
2022-11-01T06:19:10.914Z,100202.91
2022-11-01T06:21:37.506Z,100208.25
2022-11-01T06:24:04.235Z,100208.06
2022-11-01T06:26:30.815Z,100205.53
2022-11-01T06:29:00.388Z,100222.50
2022-11-01T06:31:26.935Z,100218.91
2022-11-01T06:33:53.537Z,100218.88
2022-11-01T06:36:20.346Z,100219.72
2022-11-01T06:38:47.181Z,100219.28
2022-11-01T06:41:14.109Z,100222.69
2022-11-01T06:43:40.978Z,100227.13
2022-11-01T06:46:07.935Z,100219.84
2022-11-01T06:48:34.485Z,100220.50
2022-11-01T06:51:04.705Z,100223.09
2022-11-01T06:53:31.433Z,100224.53
2022-11-01T06:55:59.626Z,100225.50
2022-11-01T06:58:26.586Z,100230.59
2022-11-01T07:00:53.285Z,100226.00
2022-11-01T07:03:19.980Z,100239.97
2022-11-01T07:05:48.230Z,100243.47
2022-11-01T07:08:14.772Z,100246.84
2022-11-01T07:10:43.206Z,100242.03
2022-11-01T07:13:13.063Z,100248.94
2022-11-01T07:15:40.185Z,100248.09
2022-11-01T07:18:08.503Z,100243.09
2022-11-01T07:20:41.859Z,100253.53
2022-11-01T07:23:12.752Z,100264.38
2022-11-01T07:25:40.054Z,100266.84
2022-11-01T07:28:07.217Z,100271.88
2022-11-01T07:30:33.789Z,100275.00
2022-11-01T07:33:03.433Z,100277.91
2022-11-01T07:35:30.387Z,100275.19
2022-11-01T07:37:59.374Z,100280.22
2022-11-01T07:40:27.946Z,100275.16
2022-11-01T07:42:56.989Z,100277.84
2022-11-01T07:45:24.516Z,100277.28
2022-11-01T07:47:51.393Z,100284.19
2022-11-01T07:50:19.287Z,100278.03
2022-11-01T07:52:45.914Z,100291.69
2022-11-01T07:55:12.461Z,100288.56
2022-11-01T07:57:40.120Z,100298.75
2022-11-01T08:00:12.421Z,100295.59
2022-11-01T08:02:39.113Z,100305.09
2022-11-01T08:05:06.343Z,100301.88
2022-11-01T08:07:38.881Z,100303.66
2022-11-01T08:10:07.445Z,100303.19
2022-11-01T08:12:34.751Z,100308.28
2022-11-01T08:15:02.466Z,100308.34
2022-11-01T08:17:30.058Z,100312.78
2022-11-01T08:19:57.087Z,100308.91
2022-11-01T08:22:23.693Z,100294.97
2022-11-01T08:24:50.297Z,100300.69
2022-11-01T08:27:16.838Z,100302.28
2022-11-01T08:29:43.393Z,100300.09
2022-11-01T08:32:09.959Z,100304.44
2022-11-01T08:34:36.562Z,100307.91
2022-11-01T08:37:03.108Z,100310.72
2022-11-01T08:39:29.990Z,100315.72
2022-11-01T08:41:59.229Z,100314.50
2022-11-01T08:44:25.810Z,100303.75
2022-11-01T08:46:55.018Z,100309.06
2022-11-01T08:49:21.609Z,100309.75
2022-11-01T08:51:48.173Z,100313.91
2022-11-01T08:54:14.794Z,100317.22
2022-11-01T08:56:41.331Z,100321.78
2022-11-01T08:59:08.241Z,100330.03
2022-11-01T09:01:36.272Z,100329.50
2022-11-01T09:04:03.570Z,100332.06
2022-11-01T09:06:33.784Z,100338.66
2022-11-01T09:09:03.644Z,100336.50
2022-11-01T09:11:31.041Z,100341.13
2022-11-01T09:14:01.173Z,100349.91
2022-11-01T09:16:27.990Z,100335.28
2022-11-01T09:18:54.560Z,100351.53
2022-11-01T09:21:21.325Z,100353.38
2022-11-01T09:23:47.960Z,100353.28
2022-11-01T09:26:14.591Z,100355.19
2022-11-01T09:28:41.244Z,100357.47
2022-11-01T09:31:26.108Z,100356.78
2022-11-01T09:33:57.359Z,100356.09
2022-11-01T09:36:25.165Z,100367.91
2022-11-01T09:38:51.755Z,100371.66
2022-11-01T09:41:21.226Z,100371.91
2022-11-01T09:43:48.650Z,100377.16
2022-11-01T09:46:18.974Z,100373.44
2022-11-01T09:48:46.537Z,100376.44
2022-11-01T09:51:20.066Z,100388.44
2022-11-01T09:53:49.500Z,100390.88
2022-11-01T09:56:30.504Z,100392.94
2022-11-01T09:59:38.582Z,100404.94
2022-11-01T10:02:37.560Z,100414.63
2022-11-01T10:05:18.839Z,100415.25
2022-11-01T10:07:54.486Z,100420.09
2022-11-01T10:10:39.950Z,100421.16
2022-11-01T10:13:39.151Z,100424.75
2022-11-01T10:16:44.404Z,100427.47
2022-11-01T10:19:18.001Z,100437.75
2022-11-01T10:21:51.245Z,100453.09
2022-11-01T10:24:21.998Z,100445.63
2022-11-01T10:26:53.904Z,100450.06
2022-11-01T10:29:51.885Z,100457.19
2022-11-01T10:32:24.455Z,100457.47
2022-11-01T10:34:54.665Z,100471.00
2022-11-01T10:37:35.277Z,100477.63
2022-11-01T10:40:08.397Z,100472.66
2022-11-01T10:42:37.409Z,100471.69
2022-11-01T10:45:10.166Z,100469.88
2022-11-01T10:47:37.114Z,100481.41
2022-11-01T10:50:07.848Z,100471.81
2022-11-01T10:52:52.305Z,100481.03
2022-11-01T10:55:26.638Z,100476.47
2022-11-01T10:58:06.631Z,100478.25
2022-11-01T11:00:38.623Z,100470.06
2022-11-01T11:03:21.284Z,100482.22
2022-11-01T11:05:49.328Z,100478.38
2022-11-01T11:08:18.686Z,100484.09
2022-11-01T11:10:45.914Z,100487.59
2022-11-01T11:13:20.767Z,100481.13
2022-11-01T11:16:00.591Z,100483.03
2022-11-01T11:18:30.484Z,100480.72
2022-11-01T11:21:00.271Z,100494.06
2022-11-01T11:23:33.906Z,100480.91
2022-11-01T11:26:03.521Z,100486.91
2022-11-01T11:28:33.489Z,100489.13
2022-11-01T11:31:14.569Z,100499.25
2022-11-01T11:33:50.402Z,100493.78
2022-11-01T11:36:18.474Z,100498.38
2022-11-01T11:38:47.954Z,100502.84
2022-11-01T11:41:39.621Z,100509.16
2022-11-01T11:44:34.812Z,100516.59
2022-11-01T11:47:03.105Z,100514.06
2022-11-01T11:49:30.069Z,100516.91
2022-11-01T11:51:57.047Z,100525.66
2022-11-01T11:54:31.386Z,100536.75
2022-11-01T11:57:11.462Z,100529.16
2022-11-01T11:59:39.258Z,100538.34
2022-11-01T12:02:20.112Z,100525.53
2022-11-01T12:04:54.718Z,100522.47
2022-11-01T12:07:34.220Z,100534.34
2022-11-01T12:10:04.206Z,100530.94
2022-11-01T12:12:40.549Z,100524.91
2022-11-01T12:15:29.459Z,100531.56
2022-11-01T12:17:56.898Z,100539.28
2022-11-01T12:20:26.149Z,100539.44
2022-11-01T12:23:10.734Z,100552.13
2022-11-01T12:25:39.639Z,100549.03
2022-11-01T12:28:17.035Z,100551.16
2022-11-01T12:30:44.506Z,100551.56
2022-11-01T12:33:18.805Z,100553.53
2022-11-01T12:35:47.667Z,100558.09
2022-11-01T12:38:39.809Z,100561.34
2022-11-01T12:41:41.518Z,100572.63
2022-11-01T12:44:33.036Z,100576.09
2022-11-01T12:47:15.006Z,100575.09
2022-11-01T12:49:53.270Z,100573.91
2022-11-01T12:52:39.807Z,100570.19
2022-11-01T12:55:19.754Z,100574.31
2022-11-01T12:57:48.178Z,100574.59
2022-11-01T13:00:17.201Z,100568.59
2022-11-01T13:03:05.487Z,100564.75
2022-11-01T13:05:45.581Z,100569.09
2022-11-01T13:08:24.183Z,100583.13
2022-11-01T13:10:51.559Z,100558.63
2022-11-01T13:13:23.929Z,100568.41
2022-11-01T13:16:03.693Z,100574.53
2022-11-01T13:18:53.247Z,100565.91
2022-11-01T13:21:44.064Z,100582.03
2022-11-01T13:24:37.542Z,100575.44
2022-11-01T13:27:22.060Z,100573.56
2022-11-01T13:30:05.417Z,100577.28
2022-11-01T13:32:59.212Z,100577.28
2022-11-01T13:35:47.999Z,100584.34
2022-11-01T13:38:33.133Z,100581.56
2022-11-01T13:41:40.105Z,100584.88
2022-11-01T13:44:14.357Z,100584.31
2022-11-01T13:46:50.083Z,100590.22
2022-11-01T13:49:41.569Z,100585.22
2022-11-01T13:52:28.875Z,100590.50
2022-11-01T13:54:59.503Z,100575.22
2022-11-01T13:57:27.068Z,100586.66
2022-11-01T13:59:57.108Z,100580.25
2022-11-01T14:02:23.843Z,100580.84
2022-11-01T14:04:58.318Z,100584.38
2022-11-01T14:07:26.412Z,100591.91
2022-11-01T14:09:54.763Z,100601.84
2022-11-01T14:12:38.146Z,100589.75
2022-11-01T14:15:18.676Z,100595.22
2022-11-01T14:18:04.073Z,100601.25
2022-11-01T14:20:33.733Z,100607.03
2022-11-01T14:23:28.881Z,100610.66
2022-11-01T14:26:16.976Z,100616.28
2022-11-01T14:28:45.750Z,100612.72
2022-11-01T14:31:18.046Z,100605.19
2022-11-01T14:33:48.682Z,100603.41
2022-11-01T14:36:19.451Z,100610.66
2022-11-01T14:38:52.360Z,100606.72
2022-11-01T14:41:20.436Z,100619.72
2022-11-01T14:43:54.471Z,100625.53
2022-11-01T14:46:26.834Z,100611.50
2022-11-01T14:49:20.880Z,100617.09
2022-11-01T14:51:57.922Z,100618.03
2022-11-01T14:54:36.439Z,100619.13
2022-11-01T14:57:03.937Z,100620.88
2022-11-01T14:59:32.598Z,100623.47
2022-11-01T15:02:03.246Z,100621.72
2022-11-01T15:04:45.951Z,100634.97
2022-11-01T15:07:30.637Z,100633.63
2022-11-01T15:10:09.671Z,100632.03
2022-11-01T15:13:02.451Z,100634.16
2022-11-01T15:15:33.583Z,100640.72
2022-11-01T15:18:05.195Z,100631.03
2022-11-01T15:20:38.676Z,100632.16
2022-11-01T15:23:09.943Z,100621.59
2022-11-01T15:25:36.729Z,100619.00
2022-11-01T15:28:03.448Z,100625.09
2022-11-01T15:30:34.201Z,100620.47
2022-11-01T15:33:20.582Z,100619.47
2022-11-01T15:35:59.450Z,100621.75
2022-11-01T15:38:27.463Z,100618.56
2022-11-01T15:40:54.299Z,100624.84
2022-11-01T15:43:25.021Z,100629.63
2022-11-01T15:45:56.495Z,100626.56
2022-11-01T15:48:27.164Z,100626.19
2022-11-01T15:50:59.380Z,100624.75
2022-11-01T15:53:30.271Z,100629.31
2022-11-01T15:56:20.226Z,100637.38
2022-11-01T15:58:57.202Z,100638.47
2022-11-01T16:01:24.506Z,100642.09
2022-11-01T16:04:03.506Z,100650.13
2022-11-01T16:06:40.968Z,100650.97
2022-11-01T16:09:19.527Z,100650.19
2022-11-01T16:11:48.338Z,100646.44
2022-11-01T16:14:37.635Z,100647.56
2022-11-01T16:17:23.118Z,100649.91
2022-11-01T16:19:51.536Z,100642.09
2022-11-01T16:22:28.743Z,100639.47
2022-11-01T16:25:25.189Z,100646.84
2022-11-01T16:28:08.557Z,100648.16
2022-11-01T16:30:52.275Z,100650.63
2022-11-01T16:33:42.122Z,100653.09
2022-11-01T16:38:51.887Z,100653.91
2022-11-01T16:41:28.828Z,100649.94
2022-11-01T16:43:59.097Z,100660.81
2022-11-01T16:46:29.162Z,100665.03
2022-11-01T16:49:00.895Z,100668.84
2022-11-01T16:51:30.203Z,100666.53
2022-11-01T16:53:59.179Z,100663.97
2022-11-01T16:56:36.592Z,100674.16
2022-11-01T16:59:25.933Z,100667.53
2022-11-01T17:01:55.513Z,100670.97
2022-11-01T17:04:22.636Z,100671.06
2022-11-01T17:06:50.398Z,100678.88
2022-11-01T17:09:18.884Z,100683.78
2022-11-01T17:11:50.735Z,100677.06
2022-11-01T17:14:18.361Z,100685.44
2022-11-01T17:16:47.185Z,100680.91
2022-11-01T17:19:23.003Z,100681.53
2022-11-01T17:21:51.688Z,100677.53
2022-11-01T17:24:21.490Z,100672.78
2022-11-01T17:26:50.178Z,100690.94
2022-11-01T17:29:16.759Z,100679.59
2022-11-01T17:31:43.320Z,100681.72
2022-11-01T17:34:09.848Z,100679.66
2022-11-01T17:36:38.510Z,100683.69
2022-11-01T17:39:05.325Z,100687.63
2022-11-01T17:41:33.081Z,100682.16
2022-11-01T17:44:00.038Z,100684.63
2022-11-01T17:46:27.112Z,100680.91
2022-11-01T17:48:53.734Z,100684.50
2022-11-01T17:51:20.393Z,100687.41
2022-11-01T17:53:47.360Z,100687.41
2022-11-01T17:56:15.122Z,100690.16
2022-11-01T17:58:42.101Z,100690.56
2022-11-01T18:01:08.794Z,100690.06
2022-11-01T18:03:36.069Z,100686.44
2022-11-01T18:06:03.016Z,100690.47
2022-11-01T18:08:34.045Z,100690.00
2022-11-01T18:11:05.523Z,100696.69
2022-11-01T18:14:04.120Z,100695.78
2022-11-01T18:17:00.288Z,100689.94
2022-11-01T18:19:35.547Z,100689.53
2022-11-01T18:22:09.502Z,100684.13
2022-11-01T18:24:46.616Z,100676.06
2022-11-01T18:27:14.711Z,100682.38
2022-11-01T18:29:47.045Z,100685.97
2022-11-01T18:32:28.483Z,100687.94
2022-11-01T18:35:05.504Z,100686.81
2022-11-01T18:37:55.807Z,100684.56
2022-11-01T18:40:32.522Z,100683.09
2022-11-01T18:42:59.720Z,100681.59
2022-11-01T18:45:33.032Z,100681.97
2022-11-01T18:48:27.426Z,100697.00
2022-11-01T18:51:05.036Z,100694.00
2022-11-01T18:53:35.112Z,100691.97
2022-11-01T18:56:38.127Z,100692.88
2022-11-01T18:59:12.772Z,100701.22
2022-11-01T19:01:40.635Z,100704.34
2022-11-01T19:04:13.203Z,100695.91
2022-11-01T19:06:39.950Z,100701.09
2022-11-01T19:09:21.566Z,100697.31
2022-11-01T19:11:55.172Z,100699.78
2022-11-01T19:14:22.600Z,100698.84
2022-11-01T19:16:50.361Z,100706.63
2022-11-01T19:19:19.810Z,100706.63
2022-11-01T19:21:47.422Z,100706.22
2022-11-01T19:24:35.999Z,100707.91
2022-11-01T19:27:14.880Z,100712.06
2022-11-01T19:29:41.930Z,100710.66
2022-11-01T19:32:13.672Z,100717.41
2022-11-01T19:34:41.248Z,100719.63
2022-11-01T19:37:33.039Z,100715.13
2022-11-01T19:40:12.650Z,100723.91
2022-11-01T19:42:39.386Z,100712.63
2022-11-01T19:45:09.098Z,100714.59
2022-11-01T19:47:39.750Z,100725.31
2022-11-01T19:50:18.662Z,100721.88
2022-11-01T19:52:47.587Z,100723.31
2022-11-01T19:55:36.701Z,100728.56
2022-11-01T19:58:24.758Z,100730.28
2022-11-01T20:01:02.803Z,100724.63
2022-11-01T20:03:57.884Z,100717.66
2022-11-01T20:06:29.192Z,100718.41
2022-11-01T20:09:03.307Z,100722.03
2022-11-01T20:11:31.717Z,100724.63
2022-11-01T20:13:58.679Z,100721.56
2022-11-01T20:16:25.412Z,100727.16
2022-11-01T20:18:52.453Z,100732.28
2022-11-01T20:21:19.238Z,100722.97
2022-11-01T20:23:45.997Z,100736.38
2022-11-01T20:26:12.814Z,100741.88
2022-11-01T20:28:39.578Z,100736.41
2022-11-01T20:31:06.447Z,100739.69
2022-11-01T20:33:33.180Z,100738.19
2022-11-01T20:36:00.238Z,100741.97
2022-11-01T20:38:27.036Z,100744.72
2022-11-01T20:40:53.779Z,100736.50
2022-11-01T20:43:21.218Z,100742.72
2022-11-01T20:45:47.986Z,100741.69
2022-11-01T20:48:14.674Z,100746.31
2022-11-01T20:50:41.464Z,100749.75
2022-11-01T20:53:08.459Z,100749.72
2022-11-01T20:55:35.546Z,100754.09
2022-11-01T20:58:03.777Z,100756.53
2022-11-01T21:00:32.136Z,100747.88
2022-11-01T21:03:01.726Z,100761.72
2022-11-01T21:05:30.654Z,100759.34
2022-11-01T21:08:14.739Z,100758.19
2022-11-01T21:10:42.616Z,100757.56
2022-11-01T21:13:23.967Z,100761.94
2022-11-01T21:15:52.173Z,100754.34
2022-11-01T21:18:18.841Z,100747.59
2022-11-01T21:20:47.968Z,100745.75
2022-11-01T21:23:35.394Z,100736.38
2022-11-01T21:26:17.333Z,100743.31
2022-11-01T21:28:48.952Z,100742.66
2022-11-01T21:31:15.576Z,100730.53
2022-11-01T21:33:54.088Z,100743.03
2022-11-01T21:36:20.752Z,100736.50
2022-11-01T21:38:48.898Z,100731.38
2022-11-01T21:41:24.485Z,100745.16
2022-11-01T21:43:51.827Z,100735.44
2022-11-01T21:46:23.576Z,100737.75
2022-11-01T21:48:53.933Z,100726.75
2022-11-01T21:51:20.503Z,100733.41
2022-11-01T21:53:47.174Z,100726.41
2022-11-01T21:56:13.795Z,100733.53
2022-11-01T21:58:40.367Z,100721.97
2022-11-01T22:01:08.059Z,100720.94
2022-11-01T22:03:34.686Z,100708.38
2022-11-01T22:06:01.330Z,100713.22
2022-11-01T22:08:28.139Z,100717.31
2022-11-01T22:10:54.741Z,100710.63
2022-11-01T22:13:21.328Z,100720.47
2022-11-01T22:15:48.174Z,100717.31
2022-11-01T22:18:14.744Z,100703.06
2022-11-01T22:20:41.766Z,100709.28
2022-11-01T22:23:08.500Z,100706.34
2022-11-01T22:25:35.042Z,100710.03
2022-11-01T22:28:02.177Z,100712.63
2022-11-01T22:30:28.812Z,100704.53
2022-11-01T22:32:55.392Z,100699.66
2022-11-01T22:35:21.989Z,100702.06
2022-11-01T22:37:48.577Z,100699.66
2022-11-01T22:40:16.703Z,100700.09
2022-11-01T22:42:43.323Z,100697.06
2022-11-01T22:45:15.776Z,100689.25
2022-11-01T22:47:42.965Z,100699.88
2022-11-01T22:50:18.983Z,100699.88
2022-11-01T22:52:48.428Z,100692.97
2022-11-01T22:55:23.059Z,100697.59
2022-11-01T22:58:22.063Z,100698.13
2022-11-01T23:00:50.021Z,100697.47
2022-11-01T23:03:27.336Z,100689.81
2022-11-01T23:05:57.569Z,100689.47
2022-11-01T23:08:33.198Z,100681.81
2022-11-01T23:11:00.821Z,100684.66
2022-11-01T23:13:51.793Z,100684.63
2022-11-01T23:16:33.702Z,100671.31
2022-11-01T23:19:02.201Z,100675.75
2022-11-01T23:21:29.404Z,100661.78
2022-11-01T23:23:56.211Z,100668.81
2022-11-01T23:26:24.142Z,100673.59
2022-11-01T23:28:56.205Z,100672.81
2022-11-01T23:31:28.086Z,100675.63
2022-11-01T23:33:55.114Z,100670.22
2022-11-01T23:36:30.379Z,100663.25
2022-11-01T23:41:28.007Z,100667.31
2022-11-01T23:43:57.000Z,100661.19
2022-11-01T23:46:25.824Z,100658.66
2022-11-01T23:49:02.008Z,100658.44
2022-11-01T23:51:30.983Z,100658.91
2022-11-01T23:53:58.451Z,100648.28
2022-11-01T23:56:25.006Z,100649.63
2022-11-01T23:59:00.598Z,100638.28
